createdAt,value
2019-04-09T00:00:44.417Z,81.48
2019-04-09T00:01:44.546Z,81.29
2019-04-09T00:02:44.480Z,81.38
2019-04-09T00:03:44.235Z,81.10
2019-04-09T00:04:44.374Z,80.91
2019-04-09T00:05:44.497Z,81.10
2019-04-09T00:06:44.613Z,81.20
2019-04-09T00:07:58.877Z,80.91
2019-04-09T00:08:48.249Z,80.91
2019-04-09T00:09:48.561Z,80.91
2019-04-09T00:10:49.583Z,81.38
2019-04-09T00:11:49.775Z,81.67
2019-04-09T00:12:49.278Z,81.58
2019-04-09T00:13:51.093Z,81.67
2019-04-09T00:14:46.701Z,82.53
2019-04-09T00:15:45.946Z,81.77
2019-04-09T00:16:46.144Z,81.67
2019-04-09T00:17:46.568Z,81.20
2019-04-09T00:18:46.463Z,81.48
2019-04-09T00:19:46.587Z,80.62
2019-04-09T00:20:47.069Z,80.81
2019-04-09T00:21:47.685Z,79.86
2019-04-09T00:22:47.006Z,79.19
2019-04-09T00:23:47.119Z,78.72
2019-04-09T00:24:47.688Z,79.00
2019-04-09T00:25:47.379Z,78.52
2019-04-09T00:26:51.752Z,79.38
2019-04-09T00:27:47.701Z,79.38
2019-04-09T00:28:47.867Z,79.38
2019-04-09T00:29:48.233Z,78.81
2019-04-09T00:30:48.152Z,79.19
2019-04-09T00:31:48.300Z,79.28
2019-04-09T00:32:48.756Z,79.38
2019-04-09T00:33:48.718Z,79.00
2019-04-09T00:34:48.714Z,79.57
2019-04-09T00:35:48.855Z,79.57
2019-04-09T00:36:48.998Z,79.86
2019-04-09T00:37:49.691Z,79.86
2019-04-09T00:38:49.711Z,80.05
2019-04-09T00:39:49.431Z,80.15
2019-04-09T00:40:49.568Z,80.05
2019-04-09T00:41:49.713Z,79.96
2019-04-09T00:42:49.890Z,81.01
2019-04-09T00:43:49.939Z,80.33
2019-04-09T00:44:50.228Z,80.81
2019-04-09T00:45:51.022Z,80.53
2019-04-09T00:46:51.138Z,80.72
2019-04-09T00:47:51.099Z,80.62
2019-04-09T00:48:50.843Z,80.33
2019-04-09T00:49:50.971Z,81.01
2019-04-09T00:50:52.079Z,81.01
2019-04-09T00:51:51.419Z,81.01
2019-04-09T00:52:51.417Z,80.72
2019-04-09T00:53:52.372Z,81.29
2019-04-09T00:54:52.203Z,81.01
2019-04-09T00:55:51.910Z,80.91
2019-04-09T00:57:00.961Z,81.01
2019-04-09T00:57:52.167Z,81.20
2019-04-09T00:58:57.022Z,80.53
2019-04-09T00:59:55.354Z,80.62
2019-04-09T01:00:55.307Z,81.10
2019-04-09T01:01:57.789Z,80.68
2019-04-09T01:02:53.773Z,81.01
2019-04-09T01:03:53.169Z,81.01
2019-04-09T01:04:53.363Z,81.38
2019-04-09T01:05:53.920Z,81.20
2019-04-09T01:06:53.958Z,81.29
2019-04-09T01:07:53.775Z,80.91
2019-04-09T01:08:54.207Z,80.62
2019-04-09T01:09:54.052Z,80.72
2019-04-09T01:10:54.881Z,80.62
2019-04-09T01:11:54.364Z,80.43
2019-04-09T01:12:54.660Z,80.24
2019-04-09T01:13:55.999Z,80.53
2019-04-09T01:14:55.938Z,80.53
2019-04-09T01:15:55.498Z,80.43
2019-04-09T01:16:55.046Z,80.62
2019-04-09T01:17:56.270Z,80.62
2019-04-09T01:19:06.991Z,80.53
2019-04-09T01:19:56.324Z,80.15
2019-04-09T01:20:56.359Z,79.67
2019-04-09T01:21:56.200Z,79.00
2019-04-09T01:22:55.884Z,79.38
2019-04-09T01:23:56.044Z,79.19
2019-04-09T01:24:56.189Z,79.19
2019-04-09T01:25:57.490Z,79.38
2019-04-09T01:27:08.195Z,79.28
2019-04-09T01:27:56.704Z,79.57
2019-04-09T01:28:57.627Z,79.38
2019-04-09T01:29:56.932Z,79.38
2019-04-09T01:30:57.043Z,79.38
2019-04-09T01:31:57.978Z,79.10
2019-04-09T01:32:58.043Z,79.00
2019-04-09T01:33:57.804Z,78.72
2019-04-09T01:34:57.621Z,78.52
2019-04-09T01:35:57.789Z,78.72
2019-04-09T01:36:57.933Z,78.33
2019-04-09T01:37:58.056Z,78.52
2019-04-09T01:38:58.979Z,78.33
2019-04-09T01:39:58.902Z,78.72
2019-04-09T01:40:58.787Z,78.81
2019-04-09T01:41:58.700Z,78.81
2019-04-09T01:42:58.846Z,78.62
2019-04-09T01:43:59.020Z,79.00
2019-04-09T01:44:59.142Z,79.48
2019-04-09T01:45:59.895Z,79.38
2019-04-09T01:46:59.941Z,79.53
2019-04-09T01:47:59.604Z,79.44
2019-04-09T01:48:59.745Z,79.53
2019-04-09T01:50:00.895Z,79.35
2019-04-09T01:51:00.109Z,79.53
2019-04-09T01:52:00.201Z,79.53
2019-04-09T01:53:00.955Z,79.82
2019-04-09T01:54:01.119Z,80.01
2019-04-09T01:55:00.748Z,79.91
2019-04-09T01:56:00.946Z,79.91
2019-04-09T01:57:01.120Z,80.11
2019-04-09T01:58:01.305Z,79.72
2019-04-09T01:59:02.027Z,79.44
2019-04-09T02:00:01.548Z,78.96
2019-04-09T02:01:01.703Z,79.15
2019-04-09T02:02:02.639Z,79.35
2019-04-09T02:03:02.536Z,79.53
2019-04-09T02:04:02.385Z,79.82
2019-04-09T02:05:02.848Z,79.72
2019-04-09T02:06:02.648Z,79.72
2019-04-09T02:07:02.579Z,80.11
2019-04-09T02:08:03.594Z,80.01
2019-04-09T02:09:02.923Z,80.58
2019-04-09T02:10:03.034Z,80.68
2019-04-09T02:11:03.939Z,80.39
2019-04-09T02:12:04.040Z,80.30
2019-04-09T02:13:03.886Z,80.68
2019-04-09T02:14:03.599Z,80.96
2019-04-09T02:15:04.834Z,80.39
2019-04-09T02:16:04.028Z,80.68
2019-04-09T02:17:04.014Z,80.30
2019-04-09T02:18:05.113Z,80.68
2019-04-09T02:19:04.974Z,80.30
2019-04-09T02:20:04.424Z,80.39
2019-04-09T02:21:04.749Z,80.58
2019-04-09T02:22:04.768Z,80.49
2019-04-09T02:23:04.818Z,79.82
2019-04-09T02:24:05.165Z,78.67
2019-04-09T02:25:06.105Z,78.58
2019-04-09T02:26:06.047Z,77.82
2019-04-09T02:27:05.470Z,77.06
2019-04-09T02:28:05.791Z,76.67
2019-04-09T02:29:06.617Z,76.39
2019-04-09T02:30:06.449Z,75.91
2019-04-09T02:31:06.240Z,75.91
2019-04-09T02:32:07.200Z,75.62
2019-04-09T02:33:07.275Z,75.47
2019-04-09T02:34:07.259Z,75.37
2019-04-09T02:35:08.212Z,75.57
2019-04-09T02:36:07.865Z,75.57
2019-04-09T02:37:07.310Z,75.09
2019-04-09T02:38:08.318Z,75.76
2019-04-09T02:39:07.339Z,75.76
2019-04-09T02:40:07.464Z,74.80
2019-04-09T02:41:07.602Z,75.37
2019-04-09T02:42:07.729Z,74.86
2019-04-09T02:43:08.251Z,74.99
2019-04-09T02:44:08.386Z,75.15
2019-04-09T02:45:08.413Z,74.80
2019-04-09T02:46:08.244Z,74.90
2019-04-09T02:47:09.389Z,75.57
2019-04-09T02:48:09.245Z,75.76
2019-04-09T02:49:08.637Z,75.76
2019-04-09T02:50:08.982Z,75.76
2019-04-09T02:51:09.416Z,76.01
2019-04-09T02:52:09.317Z,76.20
2019-04-09T02:53:10.173Z,76.57
2019-04-09T02:54:10.165Z,76.29
2019-04-09T02:55:09.599Z,76.77
2019-04-09T02:56:09.764Z,76.77
2019-04-09T02:57:09.924Z,76.77
2019-04-09T02:58:10.101Z,76.29
2019-04-09T02:59:10.231Z,76.57
2019-04-09T03:00:10.351Z,76.96
2019-04-09T03:01:10.949Z,77.15
2019-04-09T03:02:11.777Z,77.15
2019-04-09T03:03:10.865Z,77.62
2019-04-09T03:04:11.037Z,77.82
2019-04-09T03:05:11.837Z,78.30
2019-04-09T03:06:11.793Z,78.10
2019-04-09T03:07:11.490Z,78.10
2019-04-09T03:08:11.643Z,78.58
2019-04-09T03:09:12.521Z,78.73
2019-04-09T03:10:11.993Z,78.92
2019-04-09T03:11:13.047Z,78.54
2019-04-09T03:12:12.468Z,78.86
2019-04-09T03:13:12.436Z,79.02
2019-04-09T03:14:13.593Z,79.49
2019-04-09T03:15:13.611Z,79.21
2019-04-09T03:16:13.202Z,79.30
2019-04-09T03:17:13.123Z,79.30
2019-04-09T03:18:13.297Z,79.11
2019-04-09T03:19:14.267Z,79.49
2019-04-09T03:20:14.129Z,79.40
2019-04-09T03:21:13.763Z,79.68
2019-04-09T03:22:13.939Z,79.97
2019-04-09T03:23:14.087Z,79.88
2019-04-09T03:24:14.306Z,80.07
2019-04-09T03:25:14.386Z,79.88
2019-04-09T03:26:14.567Z,79.59
2019-04-09T03:27:14.727Z,79.88
2019-04-09T03:28:15.167Z,79.97
2019-04-09T03:29:15.969Z,80.26
2019-04-09T03:30:16.620Z,80.26
2019-04-09T03:31:15.389Z,79.97
2019-04-09T03:32:16.933Z,80.16
2019-04-09T03:33:16.642Z,80.26
2019-04-09T03:34:15.927Z,80.16
2019-04-09T03:35:15.934Z,79.97
2019-04-09T03:36:16.110Z,79.97
2019-04-09T03:37:16.782Z,79.93
2019-04-09T03:38:16.421Z,80.50
2019-04-09T03:39:17.671Z,80.60
2019-04-09T03:40:16.813Z,80.69
2019-04-09T03:41:16.933Z,80.79
2019-04-09T03:42:17.082Z,81.17
2019-04-09T03:43:17.244Z,80.73
2019-04-09T03:44:17.411Z,81.17
2019-04-09T03:45:19.711Z,81.26
2019-04-09T03:46:20.762Z,81.46
2019-04-09T03:47:19.332Z,80.98
2019-04-09T03:48:19.396Z,81.46
2019-04-09T03:49:19.003Z,81.46
2019-04-09T03:50:22.326Z,81.55
2019-04-09T03:51:20.164Z,81.36
2019-04-09T03:52:20.371Z,81.46
2019-04-09T03:53:22.865Z,81.36
2019-04-09T03:54:22.277Z,81.26
2019-04-09T03:55:22.968Z,81.36
2019-04-09T03:56:21.652Z,81.36
2019-04-09T03:57:21.967Z,81.55
2019-04-09T03:58:23.674Z,81.17
2019-04-09T03:59:22.960Z,81.36
2019-04-09T04:00:22.811Z,81.55
2019-04-09T04:01:22.826Z,81.17
2019-04-09T04:02:24.169Z,81.84
2019-04-09T04:03:23.512Z,81.93
2019-04-09T04:04:21.421Z,81.74
2019-04-09T04:05:22.847Z,81.65
2019-04-09T04:06:21.553Z,81.74
2019-04-09T04:07:21.577Z,82.12
2019-04-09T04:08:21.122Z,81.55
2019-04-09T04:09:23.204Z,81.74
2019-04-09T04:10:21.758Z,81.84
2019-04-09T04:11:21.559Z,81.93
2019-04-09T04:12:21.730Z,82.12
2019-04-09T04:13:22.455Z,81.84
2019-04-09T04:14:22.606Z,82.31
2019-04-09T04:15:22.299Z,82.50
2019-04-09T04:16:22.562Z,82.12
2019-04-09T04:17:22.681Z,82.79
2019-04-09T04:18:22.828Z,82.79
2019-04-09T04:19:23.522Z,82.31
2019-04-09T04:20:23.225Z,82.21
2019-04-09T04:21:23.490Z,82.69
2019-04-09T04:22:23.551Z,82.69
2019-04-09T04:23:23.696Z,82.31
2019-04-09T04:24:24.843Z,82.31
2019-04-09T04:25:23.928Z,82.21
2019-04-09T04:26:24.542Z,82.31
2019-04-09T04:27:24.219Z,82.12
2019-04-09T04:28:29.261Z,82.41
2019-04-09T04:29:25.389Z,82.12
2019-04-09T04:30:24.754Z,82.12
2019-04-09T04:31:25.887Z,81.55
2019-04-09T04:32:25.117Z,81.93
2019-04-09T04:33:25.358Z,81.84
2019-04-09T04:34:26.466Z,81.74
2019-04-09T04:35:26.421Z,82.03
2019-04-09T04:36:25.798Z,81.55
2019-04-09T04:37:25.971Z,81.74
2019-04-09T04:38:27.067Z,81.93
2019-04-09T04:39:26.477Z,81.84
2019-04-09T04:40:27.112Z,81.36
2019-04-09T04:41:26.612Z,81.36
2019-04-09T04:42:28.395Z,81.55
2019-04-09T04:43:28.645Z,81.46
2019-04-09T04:44:28.525Z,81.55
2019-04-09T04:45:27.111Z,81.84
2019-04-09T04:46:27.391Z,81.46
2019-04-09T04:47:28.433Z,81.65
2019-04-09T04:48:29.283Z,81.65
2019-04-09T04:49:29.198Z,81.65
2019-04-09T04:50:29.135Z,81.65
2019-04-09T04:51:29.518Z,81.65
2019-04-09T04:52:28.437Z,82.12
2019-04-09T04:53:28.540Z,82.41
2019-04-09T04:54:28.699Z,82.41
2019-04-09T04:55:28.962Z,82.41
2019-04-09T04:56:29.924Z,82.03
2019-04-09T04:57:29.449Z,82.12
2019-04-09T04:58:38.494Z,82.31
2019-04-09T04:59:29.437Z,82.12
2019-04-09T05:00:29.621Z,82.21
2019-04-09T05:01:30.458Z,82.12
2019-04-09T05:02:30.025Z,82.41
2019-04-09T05:03:30.512Z,82.41
2019-04-09T05:04:30.509Z,82.79
2019-04-09T05:05:31.002Z,82.50
2019-04-09T05:06:31.642Z,82.21
2019-04-09T05:07:39.087Z,82.21
2019-04-09T05:08:33.353Z,82.50
2019-04-09T05:09:32.775Z,82.60
2019-04-09T05:10:32.064Z,82.69
2019-04-09T05:11:31.578Z,82.69
2019-04-09T05:12:31.937Z,82.50
2019-04-09T05:13:32.474Z,82.41
2019-04-09T05:14:31.903Z,82.12
2019-04-09T05:15:32.000Z,82.21
2019-04-09T05:16:32.654Z,82.12
2019-04-09T05:17:32.333Z,82.03
2019-04-09T05:18:33.349Z,82.21
2019-04-09T05:19:32.798Z,81.46
2019-04-09T05:20:33.322Z,81.93
2019-04-09T05:21:32.972Z,81.74
2019-04-09T05:22:33.186Z,81.74
2019-04-09T05:23:33.795Z,81.36
2019-04-09T05:24:34.353Z,81.40
2019-04-09T05:25:33.634Z,81.65
2019-04-09T05:26:33.970Z,81.36
2019-04-09T05:27:35.086Z,81.40
2019-04-09T05:28:34.500Z,81.97
2019-04-09T05:29:34.423Z,81.59
2019-04-09T05:30:35.503Z,81.65
2019-04-09T05:31:34.860Z,81.59
2019-04-09T05:32:36.077Z,81.68
2019-04-09T05:33:35.158Z,81.59
2019-04-09T05:34:35.965Z,81.59
2019-04-09T05:35:35.442Z,81.40
2019-04-09T05:36:36.161Z,81.78
2019-04-09T05:37:36.509Z,81.59
2019-04-09T05:38:36.093Z,81.59
2019-04-09T05:39:36.525Z,81.78
2019-04-09T05:40:37.051Z,81.21
2019-04-09T05:41:36.687Z,81.40
2019-04-09T05:42:36.866Z,81.12
2019-04-09T05:43:37.054Z,80.92
2019-04-09T05:44:37.327Z,80.92
2019-04-09T05:45:38.176Z,80.83
2019-04-09T05:46:37.555Z,81.12
2019-04-09T05:47:37.700Z,81.06
2019-04-09T05:48:38.271Z,81.15
2019-04-09T05:49:38.176Z,80.77
2019-04-09T05:50:38.294Z,80.49
2019-04-09T05:51:38.371Z,80.11
2019-04-09T05:52:39.459Z,80.39
2019-04-09T05:53:38.698Z,80.11
2019-04-09T05:54:39.773Z,79.72
2019-04-09T05:55:39.121Z,79.53
2019-04-09T05:56:39.331Z,79.44
2019-04-09T05:57:41.365Z,79.25
2019-04-09T05:58:39.712Z,79.15
2019-04-09T05:59:39.855Z,79.15
2019-04-09T06:00:40.044Z,79.35
2019-04-09T06:01:40.809Z,78.81
2019-04-09T06:02:40.325Z,79.15
2019-04-09T06:03:40.504Z,78.33
2019-04-09T06:04:40.663Z,78.52
2019-04-09T06:05:40.824Z,78.23
2019-04-09T06:06:41.010Z,78.05
2019-04-09T06:07:41.119Z,78.05
2019-04-09T06:08:42.285Z,77.86
2019-04-09T06:09:41.491Z,77.67
2019-04-09T06:10:41.536Z,78.33
2019-04-09T06:11:42.239Z,78.33
2019-04-09T06:12:41.894Z,78.33
2019-04-09T06:13:42.022Z,77.09
2019-04-09T06:14:42.185Z,77.23
2019-04-09T06:15:43.375Z,77.13
2019-04-09T06:16:43.243Z,77.51
2019-04-09T06:17:43.371Z,77.03
2019-04-09T06:18:42.755Z,76.75
2019-04-09T06:19:42.926Z,76.46
2019-04-09T06:20:42.981Z,76.12
2019-04-09T06:21:44.360Z,75.74
2019-04-09T06:22:43.577Z,74.78
2019-04-09T06:23:43.555Z,74.40
2019-04-09T06:24:43.724Z,74.24
2019-04-09T06:25:44.044Z,74.15
2019-04-09T06:26:44.033Z,73.86
2019-04-09T06:27:44.179Z,73.77
2019-04-09T06:28:44.373Z,74.05
2019-04-09T06:29:44.549Z,74.24
2019-04-09T06:30:44.703Z,73.67
2019-04-09T06:31:44.926Z,73.77
2019-04-09T06:32:45.680Z,73.77
2019-04-09T06:33:45.200Z,73.00
2019-04-09T06:34:45.298Z,72.66
2019-04-09T06:35:46.303Z,72.18
2019-04-09T06:36:46.022Z,71.42
2019-04-09T06:37:46.624Z,72.08
2019-04-09T06:38:46.035Z,71.93
2019-04-09T06:39:47.519Z,71.26
2019-04-09T06:40:46.523Z,69.73
2019-04-09T06:41:46.536Z,69.35
2019-04-09T06:42:46.719Z,69.25
2019-04-09T06:43:46.913Z,68.52
2019-04-09T06:44:47.061Z,68.52
2019-04-09T06:45:47.501Z,68.27
2019-04-09T06:46:48.893Z,67.31
2019-04-09T06:47:47.544Z,66.16
2019-04-09T06:48:48.031Z,66.00
2019-04-09T06:49:48.262Z,65.23
2019-04-09T06:50:49.369Z,64.69
2019-04-09T06:51:52.201Z,63.67
2019-04-09T06:52:48.678Z,63.67
2019-04-09T06:53:48.546Z,63.76
2019-04-09T06:54:57.740Z,62.87
2019-04-09T06:55:49.150Z,63.00
2019-04-09T06:56:49.661Z,63.09
2019-04-09T06:57:49.899Z,63.00
2019-04-09T06:58:50.320Z,62.71
2019-04-09T06:59:49.385Z,62.62
2019-04-09T07:00:50.910Z,61.75
2019-04-09T07:01:49.835Z,61.88
2019-04-09T07:02:53.146Z,61.49
2019-04-09T07:03:51.203Z,60.72
2019-04-09T07:04:53.227Z,61.02
2019-04-09T07:05:52.494Z,60.05
2019-04-09T07:06:53.433Z,60.28
2019-04-09T07:07:51.905Z,60.66
2019-04-09T07:08:51.280Z,59.70
2019-04-09T07:09:51.679Z,59.12
2019-04-09T07:10:52.342Z,59.12
2019-04-09T07:11:51.613Z,59.61
2019-04-09T07:12:51.871Z,59.80
2019-04-09T07:13:51.968Z,59.22
2019-04-09T07:14:53.795Z,59.25
2019-04-09T07:15:52.764Z,59.54
2019-04-09T07:16:52.489Z,59.03
2019-04-09T07:17:52.707Z,59.12
2019-04-09T07:18:53.637Z,59.89
2019-04-09T07:19:53.497Z,59.51
2019-04-09T07:20:53.156Z,59.86
2019-04-09T07:21:53.629Z,59.96
2019-04-09T07:22:53.434Z,60.44
2019-04-09T07:23:54.316Z,60.82
2019-04-09T07:24:54.317Z,59.61
2019-04-09T07:25:54.325Z,59.61
2019-04-09T07:26:54.959Z,59.61
2019-04-09T07:27:55.273Z,59.03
2019-04-09T07:28:56.786Z,59.12
2019-04-09T07:30:03.984Z,59.54
2019-04-09T07:30:56.285Z,58.89
2019-04-09T07:31:55.311Z,58.22
2019-04-09T07:32:55.617Z,57.48
2019-04-09T07:33:55.264Z,57.20
2019-04-09T07:34:55.979Z,56.43
2019-04-09T07:35:55.600Z,56.62
2019-04-09T07:36:57.088Z,56.36
2019-04-09T07:37:56.387Z,55.78
2019-04-09T07:38:57.808Z,55.68
2019-04-09T07:40:00.573Z,54.82
2019-04-09T07:41:01.050Z,54.72
2019-04-09T07:41:56.614Z,54.85
2019-04-09T07:42:56.857Z,53.96
2019-04-09T07:43:59.007Z,53.96
2019-04-09T07:45:02.258Z,54.14
2019-04-09T07:45:58.021Z,53.96
2019-04-09T07:46:58.556Z,53.40
2019-04-09T07:48:00.948Z,53.88
2019-04-09T07:49:00.185Z,54.17
2019-04-09T07:50:00.200Z,53.98
2019-04-09T07:50:59.050Z,52.92
2019-04-09T07:51:58.985Z,52.66
2019-04-09T07:53:01.165Z,51.76
2019-04-09T07:54:02.258Z,52.15
2019-04-09T07:54:58.938Z,52.73
2019-04-09T07:56:00.853Z,52.61
2019-04-09T07:57:02.165Z,52.34
2019-04-09T07:57:59.789Z,52.63
2019-04-09T07:58:59.735Z,52.61
2019-04-09T08:00:09.233Z,53.19
2019-04-09T08:01:00.195Z,53.66
2019-04-09T08:02:00.277Z,54.14
2019-04-09T08:03:01.302Z,53.28
2019-04-09T08:04:04.473Z,53.66
2019-04-09T08:05:01.075Z,54.24
2019-04-09T08:06:00.984Z,53.47
2019-04-09T08:07:04.668Z,53.28
2019-04-09T08:08:03.138Z,53.66
2019-04-09T08:09:02.450Z,54.14
2019-04-09T08:10:02.016Z,54.24
2019-04-09T08:11:04.080Z,53.80
2019-04-09T08:12:02.827Z,54.79
2019-04-09T08:13:05.484Z,54.60
2019-04-09T08:14:02.461Z,54.12
2019-04-09T08:15:03.053Z,55.27
2019-04-09T08:16:06.297Z,54.99
2019-04-09T08:17:02.844Z,54.69
2019-04-09T08:18:07.292Z,54.14
2019-04-09T08:19:03.906Z,54.31
2019-04-09T08:20:03.315Z,54.12
2019-04-09T08:21:04.094Z,53.92
2019-04-09T08:22:06.900Z,53.28
2019-04-09T08:23:03.764Z,53.57
2019-04-09T08:24:03.923Z,52.99
2019-04-09T08:25:04.346Z,52.89
2019-04-09T08:26:05.240Z,53.28
2019-04-09T08:27:08.973Z,52.54
2019-04-09T08:28:04.833Z,52.73
2019-04-09T08:29:05.008Z,51.89
2019-04-09T08:30:18.104Z,51.70
2019-04-09T08:31:05.831Z,51.34
2019-04-09T08:32:12.444Z,50.85
2019-04-09T08:33:06.290Z,51.26
2019-04-09T08:34:06.274Z,50.01
2019-04-09T08:35:06.407Z,51.07
2019-04-09T08:36:09.300Z,50.21
2019-04-09T08:37:05.808Z,49.46
2019-04-09T08:38:06.898Z,49.29
2019-04-09T08:39:06.361Z,48.93
2019-04-09T08:40:08.954Z,48.16
2019-04-09T08:41:06.532Z,46.73
2019-04-09T08:42:06.712Z,47.12
2019-04-09T08:43:09.203Z,46.44
2019-04-09T08:44:12.629Z,45.69
2019-04-09T08:45:07.218Z,46.66
2019-04-09T08:46:08.025Z,46.68
2019-04-09T08:47:07.462Z,45.50
2019-04-09T08:48:12.993Z,45.33
2019-04-09T08:49:07.737Z,44.92
2019-04-09T08:50:08.338Z,45.04
2019-04-09T08:51:09.919Z,44.56
2019-04-09T08:52:11.155Z,45.31
2019-04-09T08:53:08.720Z,45.33
2019-04-09T08:54:08.739Z,45.35
2019-04-09T08:55:09.556Z,44.29
2019-04-09T08:56:09.617Z,43.92
2019-04-09T08:57:14.450Z,44.38
2019-04-09T08:58:10.288Z,43.80
2019-04-09T08:59:09.550Z,43.73
2019-04-09T09:00:09.864Z,43.63
2019-04-09T09:02:19.215Z,41.64
2019-04-09T09:03:10.728Z,42.05
2019-04-09T09:04:14.253Z,41.95
2019-04-09T09:05:15.996Z,41.08
2019-04-09T09:06:14.459Z,41.95
2019-04-09T09:07:13.782Z,42.24
2019-04-09T09:08:11.030Z,40.94
2019-04-09T09:09:12.183Z,41.02
2019-04-09T09:10:15.382Z,41.50
2019-04-09T09:11:11.759Z,42.00
2019-04-09T09:12:12.655Z,42.59
2019-04-09T09:13:15.579Z,42.30
2019-04-09T09:14:12.063Z,43.15
2019-04-09T09:15:12.183Z,41.89
2019-04-09T09:16:13.321Z,41.41
2019-04-09T09:17:12.869Z,42.40
2019-04-09T09:18:12.616Z,42.10
2019-04-09T09:19:13.147Z,42.10
2019-04-09T09:20:14.216Z,42.68
2019-04-09T09:21:20.635Z,43.17
2019-04-09T09:22:14.312Z,41.93
2019-04-09T09:23:13.430Z,42.59
2019-04-09T09:24:16.547Z,42.78
2019-04-09T09:25:13.814Z,42.41
2019-04-09T09:26:13.986Z,41.56
2019-04-09T09:27:15.480Z,40.58
2019-04-09T09:28:14.562Z,41.64
2019-04-09T09:29:15.403Z,41.56
2019-04-09T09:30:15.636Z,41.47
2019-04-09T09:31:20.790Z,40.33
2019-04-09T09:32:15.423Z,39.57
2019-04-09T09:33:15.761Z,40.08
2019-04-09T09:34:17.627Z,39.67
2019-04-09T09:35:15.911Z,39.69
2019-04-09T09:36:16.249Z,38.34
2019-04-09T09:37:18.345Z,38.83
2019-04-09T09:38:17.924Z,37.96
2019-04-09T09:39:16.331Z,37.68
2019-04-09T09:40:18.279Z,38.64
2019-04-09T09:41:16.662Z,38.65
2019-04-09T09:42:17.230Z,37.49
2019-04-09T09:43:19.199Z,38.09
2019-04-09T09:44:21.409Z,38.39
2019-04-09T09:45:17.369Z,37.41
2019-04-09T09:46:17.638Z,37.68
2019-04-09T09:47:17.809Z,37.10
2019-04-09T09:48:19.618Z,36.44
2019-04-09T09:49:18.192Z,37.22
2019-04-09T09:50:20.408Z,36.85
2019-04-09T09:51:18.508Z,36.26
2019-04-09T09:52:19.129Z,35.99
2019-04-09T09:53:19.658Z,35.88
2019-04-09T09:54:19.147Z,36.75
2019-04-09T09:55:21.436Z,36.85
2019-04-09T09:56:21.194Z,36.75
2019-04-09T09:57:20.452Z,36.83
2019-04-09T09:58:21.228Z,35.88
2019-04-09T09:59:26.615Z,35.88
2019-04-09T10:00:20.142Z,37.14
2019-04-09T10:01:29.339Z,36.46
2019-04-09T10:02:20.658Z,36.18
2019-04-09T10:03:21.711Z,35.97
2019-04-09T10:04:20.834Z,36.16
2019-04-09T10:05:22.000Z,35.49
2019-04-09T10:07:35.603Z,35.80
2019-04-09T10:07:58.643Z,35.49
2019-04-09T10:08:21.563Z,34.90
2019-04-09T10:09:26.097Z,35.80
2019-04-09T10:10:24.775Z,36.08
2019-04-09T10:11:22.078Z,35.81
2019-04-09T10:12:31.582Z,35.41
2019-04-09T10:13:25.756Z,36.47
2019-04-09T10:14:23.703Z,36.16
2019-04-09T10:15:23.273Z,35.86
2019-04-09T10:16:23.270Z,35.57
2019-04-09T10:17:28.247Z,35.96
2019-04-09T10:18:23.453Z,36.63
2019-04-09T10:19:28.123Z,36.93
2019-04-09T10:20:26.006Z,35.96
2019-04-09T10:21:24.650Z,36.63
2019-04-09T10:22:25.572Z,36.24
2019-04-09T10:23:27.088Z,36.46
2019-04-09T10:24:30.940Z,36.16
2019-04-09T10:25:28.645Z,37.02
2019-04-09T10:26:24.913Z,36.36
2019-04-09T10:27:26.206Z,35.99
2019-04-09T10:28:28.554Z,35.33
2019-04-09T10:29:25.924Z,34.53
2019-04-09T10:30:25.848Z,34.94
2019-04-09T10:31:34.804Z,34.55
2019-04-09T10:32:25.971Z,35.13
2019-04-09T10:33:26.647Z,35.41
2019-04-09T10:34:26.482Z,35.50
2019-04-09T10:35:30.823Z,35.70
2019-04-09T10:36:26.727Z,35.60
2019-04-09T10:37:26.904Z,35.61
2019-04-09T10:38:27.524Z,34.06
2019-04-09T10:39:34.174Z,34.06
2019-04-09T10:40:27.886Z,34.55
2019-04-09T10:41:37.320Z,34.56
2019-04-09T10:42:27.754Z,34.95
2019-04-09T10:43:28.436Z,34.47
2019-04-09T10:44:28.805Z,33.98
2019-04-09T10:45:28.508Z,34.27
2019-04-09T10:46:32.000Z,34.08
2019-04-09T10:47:28.792Z,33.39
2019-04-09T10:48:28.795Z,33.69
2019-04-09T10:49:28.878Z,33.69
2019-04-09T10:50:32.763Z,33.78
2019-04-09T10:51:29.189Z,33.49
2019-04-09T10:52:29.417Z,34.19
2019-04-09T10:53:32.714Z,33.22
2019-04-09T10:54:29.666Z,33.49
2019-04-09T10:55:29.822Z,33.20
2019-04-09T10:56:32.607Z,32.79
2019-04-09T10:57:30.173Z,34.25
2019-04-09T10:58:30.362Z,33.69
2019-04-09T10:59:32.252Z,34.47
2019-04-09T11:00:30.613Z,34.08
2019-04-09T11:01:37.889Z,34.17
2019-04-09T11:02:33.289Z,32.73
2019-04-09T11:03:35.852Z,33.01
2019-04-09T11:04:31.611Z,32.99
2019-04-09T11:05:31.546Z,33.58
2019-04-09T11:06:32.834Z,34.06
2019-04-09T11:07:34.655Z,34.17
2019-04-09T11:08:36.214Z,34.56
2019-04-09T11:09:32.655Z,34.68
2019-04-09T11:10:33.056Z,34.19
2019-04-09T11:11:32.588Z,34.09
2019-04-09T11:12:33.129Z,33.43
2019-04-09T11:13:34.400Z,32.06
2019-04-09T11:14:33.168Z,33.23
2019-04-09T11:15:33.305Z,32.57
2019-04-09T11:16:33.945Z,32.75
2019-04-09T11:17:37.596Z,32.94
2019-04-09T11:18:33.908Z,32.75
2019-04-09T11:19:35.016Z,33.14
2019-04-09T11:20:35.174Z,33.22
2019-04-09T11:21:36.937Z,34.00
2019-04-09T11:22:34.510Z,33.62
2019-04-09T11:23:35.366Z,32.73
2019-04-09T11:24:35.716Z,32.82
2019-04-09T11:25:37.644Z,32.82
2019-04-09T11:26:35.191Z,34.09
2019-04-09T11:27:35.250Z,34.08
2019-04-09T11:28:36.194Z,33.29
2019-04-09T11:29:35.561Z,34.00
2019-04-09T11:30:36.173Z,33.01
2019-04-09T11:31:45.469Z,33.86
2019-04-09T11:32:36.170Z,34.25
2019-04-09T11:33:37.371Z,33.86
2019-04-09T11:34:36.531Z,33.67
2019-04-09T11:35:36.719Z,34.16
2019-04-09T11:36:36.961Z,34.25
2019-04-09T11:37:37.106Z,33.20
2019-04-09T11:38:37.463Z,34.16
2019-04-09T11:39:38.497Z,33.96
2019-04-09T11:40:37.677Z,34.45
2019-04-09T11:41:39.162Z,34.45
2019-04-09T11:42:41.409Z,33.28
2019-04-09T11:43:40.413Z,32.99
2019-04-09T11:44:39.050Z,32.79
2019-04-09T11:45:39.773Z,34.14
2019-04-09T11:46:40.630Z,34.35
2019-04-09T11:47:41.343Z,34.24
2019-04-09T11:48:40.675Z,34.24
2019-04-09T11:49:40.255Z,34.53
2019-04-09T11:50:42.462Z,34.53
2019-04-09T11:51:41.643Z,35.88
2019-04-09T11:52:40.835Z,35.58
2019-04-09T11:53:40.670Z,35.10
2019-04-09T11:54:40.772Z,35.96
2019-04-09T11:55:40.214Z,35.86
2019-04-09T11:56:42.219Z,35.57
2019-04-09T11:57:41.468Z,35.96
2019-04-09T11:58:40.702Z,36.42
2019-04-09T11:59:41.484Z,35.86
2019-04-09T12:00:41.750Z,35.74
2019-04-09T12:01:41.253Z,36.79
2019-04-09T12:02:42.289Z,36.50
2019-04-09T12:03:41.628Z,36.60
2019-04-09T12:04:41.872Z,37.76
2019-04-09T12:05:44.576Z,37.05
2019-04-09T12:06:42.249Z,37.51
2019-04-09T12:07:42.445Z,37.41
2019-04-09T12:08:43.219Z,37.81
2019-04-09T12:09:43.574Z,37.51
2019-04-09T12:10:43.016Z,38.58
2019-04-09T12:11:45.264Z,39.04
2019-04-09T12:12:44.188Z,40.09
2019-04-09T12:13:43.530Z,39.53
2019-04-09T12:14:44.392Z,39.70
2019-04-09T12:15:44.696Z,40.28
2019-04-09T12:16:44.203Z,41.62
2019-04-09T12:17:47.097Z,41.31
2019-04-09T12:18:46.271Z,41.41
2019-04-09T12:19:44.749Z,42.25
2019-04-09T12:20:46.730Z,42.55
2019-04-09T12:21:45.696Z,42.62
2019-04-09T12:22:45.556Z,42.82
2019-04-09T12:23:45.422Z,43.68
2019-04-09T12:24:45.502Z,44.05
2019-04-09T12:25:46.183Z,43.76
2019-04-09T12:26:46.521Z,44.03
2019-04-09T12:27:46.599Z,44.60
2019-04-09T12:28:49.072Z,44.32
2019-04-09T12:29:46.837Z,44.42
2019-04-09T12:30:46.609Z,44.78
2019-04-09T12:31:46.784Z,45.17
2019-04-09T12:32:46.952Z,45.24
2019-04-09T12:33:47.190Z,45.04
2019-04-09T12:34:47.273Z,46.59
2019-04-09T12:35:48.594Z,46.01
2019-04-09T12:36:47.693Z,46.11
2019-04-09T12:37:48.072Z,46.30
2019-04-09T12:38:48.120Z,46.88
2019-04-09T12:39:48.542Z,47.14
2019-04-09T12:40:48.937Z,47.14
2019-04-09T12:41:50.576Z,47.24
2019-04-09T12:42:48.869Z,47.44
2019-04-09T12:43:50.430Z,46.93
2019-04-09T12:44:49.817Z,47.31
2019-04-09T12:45:49.315Z,47.89
2019-04-09T12:46:49.555Z,48.18
2019-04-09T12:47:50.343Z,48.11
2019-04-09T12:48:50.739Z,47.72
2019-04-09T12:49:50.118Z,47.82
2019-04-09T12:50:50.925Z,46.55
2019-04-09T12:51:51.279Z,46.45
2019-04-09T12:52:50.696Z,46.93
2019-04-09T12:53:50.992Z,46.55
2019-04-09T12:54:51.679Z,47.00
2019-04-09T12:55:54.206Z,47.97